Bv379 — WAI9272 — position and weather

sailwx.info

Track history (hours):
 
Tides and Currents Weather Stations Pressure Air Temp Water Temp Dewpoint Dewpoint Depression Visibility Wind Speed Wind Dir Waves Ship Positions

Bv379

Owner: BIG VALLEY TOWING, VICKSBURG, MS. More information available from US FCC via Universal Licensing System and Coast Guard Vessel Documentation Center.

Last reported at 2018-Apr-26 15:25 UTC. Time now 2018-Apr-27 02:46 UTC.
Position N 32°20' W 090°54'.

Length 12 m.

Type: Passenger vessel. MMSI: 367009830.

Date/timePositionNaut miles runAvg speedWind from/ knotsBaromVisibWave heightAir tempDewpointWater temp
2018-Apr-26 15:25N 32°20' W 090°54'2 4.9
2018-Apr-26 15:01N 32°20' W 090°56'2 3.2
2018-Apr-26 14:31N 32°21' W 090°58'4 7.2
2018-Apr-26 14:01N 32°20' W 090°54'0 0.0
2018-Apr-25 15:18N 32°20' W 090°54'2 5.7
2018-Apr-25 15:00N 32°21' W 090°53'2 4.0
2018-Apr-25 14:30N 32°23' W 090°53'1 1.2
2018-Apr-25 14:00N 32°23' W 090°53'3 6.0
2018-Apr-25 13:26N 32°20' W 090°54'4 8.9
2018-Apr-25 13:01N 32°21' W 090°58'4 0.2
2018-Apr-24 14:20N 32°20' W 090°54'1 3.7
2018-Apr-24 14:00N 32°19' W 090°55'4 7.5
2018-Apr-24 13:30N 32°21' W 090°58'2 4.4
2018-Apr-24 13:01N 32°21' W 090°56'2 3.5
2018-Apr-24 12:27N 32°20' W 090°54'1 1.8
2018-Apr-24 12:01N 32°19' W 090°54'2 4.5
2018-Apr-24 11:30N 32°21' W 090°56'2 0.2
2018-Apr-23 20:12N 32°20' W 090°54'1 5.3
2018-Apr-23 20:01N 32°19' W 090°54'4 8.4
2018-Apr-23 19:31N 32°21' W 090°59'4 0.9
2018-Apr-23 14:44N 32°20' W 090°54'1 4.7
2018-Apr-23 14:30N 32°19' W 090°55'4 8.3
2018-Apr-23 14:00N 32°21' W 090°59'4 8.8
2018-Apr-23 13:30N 32°20' W 090°54'0 0.0
2018-Apr-23 01:10N 32°20' W 090°54'1 4.7
2018-Apr-23 01:00N 32°20' W 090°54'1 2.0
2018-Apr-23 00:30N 32°21' W 090°53'2 0.6
2018-Apr-22 21:45N 32°20' W 090°54'210.0
2018-Apr-22 21:31N 32°21' W 090°56'2 4.5
2018-Apr-22 21:00N 32°19' W 090°54'2 3.8
2018-Apr-22 20:31N 32°21' W 090°56'1 2.2
2018-Apr-22 20:01N 32°21' W 090°57'3 2.4
2018-Apr-22 18:46N 32°20' W 090°54'1 3.7
2018-Apr-22 18:30N 32°19' W 090°55'4 7.9
2018-Apr-22 18:01N 32°21' W 090°59'4 1.4
2018-Apr-22 14:53N 32°20' W 090°54'1 2.5
2018-Apr-22 14:30N 32°19' W 090°54'3 5.6
2018-Apr-22 14:01N 32°21' W 090°57'2 4.1
2018-Apr-22 13:30N 32°20' W 090°55'1 2.3
2018-Apr-22 13:00N 32°19' W 090°55'0 0.2
2018-Apr-22 12:30N 32°19' W 090°55'2 3.1
2018-Apr-22 12:00N 32°20' W 090°55'1 0.1
2018-Apr-21 20:52N 32°20' W 090°54'1 3.1
2018-Apr-21 20:30N 32°20' W 090°55'3 5.4
2018-Apr-21 20:00N 32°21' W 090°58'4 7.5
2018-Apr-21 19:30N 32°20' W 090°54'1 1.5
2018-Apr-21 19:00N 32°20' W 090°54'3 6.4
2018-Apr-21 18:30N 32°21' W 090°58'1 2.9
2018-Apr-21 18:00N 32°21' W 090°56'3 0.6
2018-Apr-21 13:50N 32°20' W 090°54'0 1.6
2018-Apr-21 13:30N 32°20' W 090°54'2 3.1
2018-Apr-21 13:00N 32°21' W 090°56'2 4.1
2018-Apr-21 12:30N 32°20' W 090°54'1 1.7
2018-Apr-21 12:01N 32°19' W 090°54'3 5.9
2018-Apr-21 11:30N 32°21' W 090°57'3 0.6
2018-Apr-21 06:17N 32°20' W 090°54'1 1.9
2018-Apr-21 06:00N 32°20' W 090°54'1 1.1
2018-Apr-21 05:30N 32°21' W 090°54'1 2.0
2018-Apr-21 05:01N 32°20' W 090°54'0 0.0
2018-Apr-21 03:37N 32°20' W 090°54'1 4.5
2018-Apr-21 03:30N 32°20' W 090°54'1 1.1
2018-Apr-21 03:01N 32°20' W 090°54'3 5.0
2018-Apr-21 02:30N 32°18' W 090°55'3 4.9
2018-Apr-21 02:00N 32°20' W 090°54'0 0.1
2018-Apr-21 01:31N 32°20' W 090°54'1 2.6
2018-Apr-21 01:01N 32°21' W 090°55'1 2.6
2018-Apr-21 00:31N 32°20' W 090°54'0 0.0
2018-Apr-20 19:48N 32°20' W 090°54'1 2.1
2018-Apr-20 19:30N 32°19' W 090°54'0 0.5
2018-Apr-20 19:00N 32°19' W 090°54'0 0.2
2018-Apr-20 16:42N 32°20' W 090°54'0 2.5
2018-Apr-20 16:30N 32°20' W 090°54'1 1.5
2018-Apr-20 16:00N 32°20' W 090°55'1 2.6
2018-Apr-20 15:30N 32°19' W 090°55'1 1.1
2018-Apr-20 15:00N 32°19' W 090°54'1 1.4
2018-Apr-20 14:30N 32°19' W 090°55'4 8.0
2018-Apr-20 14:00N 32°21' W 090°58'4 7.8
2018-Apr-20 13:30N 32°19' W 090°55'2 3.3
2018-Apr-20 13:00N 32°20' W 090°55'1 2.1
2018-Apr-20 12:30N 32°20' W 090°54'1 2.6
2018-Apr-20 12:01N 32°19' W 090°55'2 3.5
2018-Apr-20 11:30N 32°20' W 090°54'1 0.1
2018-Apr-19 19:20N 32°20' W 090°54'0 0.1
2018-Apr-19 19:00N 32°20' W 090°54'1 1.5
2018-Apr-19 18:30N 32°20' W 090°55'4 7.4
2018-Apr-19 18:01N 32°21' W 090°59'4 8.9
2018-Apr-19 17:30N 32°20' W 090°54'0 0.0
2018-Apr-19 16:17N 32°20' W 090°54'311.8
2018-Apr-19 16:00N 32°21' W 090°57'3 3.2
2018-Apr-19 14:59N 32°20' W 090°54'1 1.8
2018-Apr-19 14:30N 32°19' W 090°55'0 0.5
2018-Apr-19 14:01N 32°19' W 090°55'1 2.1
2018-Apr-19 13:30N 32°20' W 090°54'1 2.2
2018-Apr-19 13:00N 32°20' W 090°55'2 4.7
2018-Apr-19 12:31N 32°18' W 090°56'1 2.3
2018-Apr-19 12:00N 32°19' W 090°55'2 3.4
2018-Apr-19 11:30N 32°20' W 090°55'2 0.1
2018-Apr-18 17:18N 32°20' W 090°54'1 3.8
2018-Apr-18 17:01N 32°19' W 090°55'0 0.7
2018-Apr-18 16:30N 32°19' W 090°54'3 6.0
2018-Apr-18 16:00N 32°21' W 090°57'3 0.2
2018-Apr-17 19:44N 32°20' W 090°54'1 3.9
2018-Apr-17 19:29N 32°19' W 090°54'1 2.1
2018-Apr-17 19:01N 32°20' W 090°54'2 4.1
2018-Apr-17 18:31N 32°21' W 090°56'2 4.1
2018-Apr-17 18:00N 32°19' W 090°54'3 5.1
2018-Apr-17 17:31N 32°21' W 090°56'3 5.1
2018-Apr-17 17:00N 32°19' W 090°55'3 6.6
2018-Apr-17 16:31N 32°21' W 090°58'4 1.1
2018-Apr-17 13:20N 32°20' W 090°54'1 2.9
2018-Apr-17 13:00N 32°19' W 090°54'2 3.5
2018-Apr-17 12:31N 32°20' W 090°55'1 1.0
2018-Apr-17 12:00N 32°20' W 090°55'1 2.0
2018-Apr-17 11:30N 32°20' W 090°54'0 0.0
2018-Apr-16 22:07N 32°20' W 090°54'1 7.5
2018-Apr-16 22:01N 32°19' W 090°54'2 4.4
2018-Apr-16 21:31N 32°21' W 090°56'0 0.6
2018-Apr-16 21:00N 32°21' W 090°56'  
Track history (hours):
 
Tides and Currents Weather Stations Pressure Air Temp Water Temp Dewpoint Dewpoint Depression Visibility Wind Speed Wind Dir Waves Ship Positions

Bv379

Owner: BIG VALLEY TOWING, VICKSBURG, MS. More information available from US FCC via Universal Licensing System and Coast Guard Vessel Documentation Center.

Last reported at 2018-Apr-26 15:25 UTC. Time now 2018-Apr-27 02:46 UTC.
Position N 32°20' W 090°54'.

Length 12 m.

Type: Passenger vessel. MMSI: 367009830.

Date/timePositionNaut miles runAvg speedWind from/ knotsBaromVisibWave heightAir tempDewpointWater temp
2018-Apr-26 15:25N 32°20' W 090°54'2 4.9
2018-Apr-26 15:01N 32°20' W 090°56'2 3.2
2018-Apr-26 14:31N 32°21' W 090°58'4 7.2
2018-Apr-26 14:01N 32°20' W 090°54'0 0.0
2018-Apr-25 15:18N 32°20' W 090°54'2 5.7
2018-Apr-25 15:00N 32°21' W 090°53'2 4.0
2018-Apr-25 14:30N 32°23' W 090°53'1 1.2
2018-Apr-25 14:00N 32°23' W 090°53'3 6.0
2018-Apr-25 13:26N 32°20' W 090°54'4 8.9
2018-Apr-25 13:01N 32°21' W 090°58'4 0.2
2018-Apr-24 14:20N 32°20' W 090°54'1 3.7
2018-Apr-24 14:00N 32°19' W 090°55'4 7.5
2018-Apr-24 13:30N 32°21' W 090°58'2 4.4
2018-Apr-24 13:01N 32°21' W 090°56'2 3.5
2018-Apr-24 12:27N 32°20' W 090°54'1 1.8
2018-Apr-24 12:01N 32°19' W 090°54'2 4.5
2018-Apr-24 11:30N 32°21' W 090°56'2 0.2
2018-Apr-23 20:12N 32°20' W 090°54'1 5.3
2018-Apr-23 20:01N 32°19' W 090°54'4 8.4
2018-Apr-23 19:31N 32°21' W 090°59'4 0.9
2018-Apr-23 14:44N 32°20' W 090°54'1 4.7
2018-Apr-23 14:30N 32°19' W 090°55'4 8.3
2018-Apr-23 14:00N 32°21' W 090°59'4 8.8
2018-Apr-23 13:30N 32°20' W 090°54'0 0.0
2018-Apr-23 01:10N 32°20' W 090°54'1 4.7
2018-Apr-23 01:00N 32°20' W 090°54'1 2.0
2018-Apr-23 00:30N 32°21' W 090°53'2 0.6
2018-Apr-22 21:45N 32°20' W 090°54'210.0
2018-Apr-22 21:31N 32°21' W 090°56'2 4.5
2018-Apr-22 21:00N 32°19' W 090°54'2 3.8
2018-Apr-22 20:31N 32°21' W 090°56'1 2.2
2018-Apr-22 20:01N 32°21' W 090°57'3 2.4
2018-Apr-22 18:46N 32°20' W 090°54'1 3.7
2018-Apr-22 18:30N 32°19' W 090°55'4 7.9
2018-Apr-22 18:01N 32°21' W 090°59'4 1.4
2018-Apr-22 14:53N 32°20' W 090°54'1 2.5
2018-Apr-22 14:30N 32°19' W 090°54'3 5.6
2018-Apr-22 14:01N 32°21' W 090°57'2 4.1
2018-Apr-22 13:30N 32°20' W 090°55'1 2.3
2018-Apr-22 13:00N 32°19' W 090°55'0 0.2
2018-Apr-22 12:30N 32°19' W 090°55'2 3.1
2018-Apr-22 12:00N 32°20' W 090°55'1 0.1
2018-Apr-21 20:52N 32°20' W 090°54'1 3.1
2018-Apr-21 20:30N 32°20' W 090°55'3 5.4
2018-Apr-21 20:00N 32°21' W 090°58'4 7.5
2018-Apr-21 19:30N 32°20' W 090°54'1 1.5
2018-Apr-21 19:00N 32°20' W 090°54'3 6.4
2018-Apr-21 18:30N 32°21' W 090°58'1 2.9
2018-Apr-21 18:00N 32°21' W 090°56'3 0.6
2018-Apr-21 13:50N 32°20' W 090°54'0 1.6
2018-Apr-21 13:30N 32°20' W 090°54'2 3.1
2018-Apr-21 13:00N 32°21' W 090°56'2 4.1
2018-Apr-21 12:30N 32°20' W 090°54'1 1.7
2018-Apr-21 12:01N 32°19' W 090°54'3 5.9
2018-Apr-21 11:30N 32°21' W 090°57'3 0.6
2018-Apr-21 06:17N 32°20' W 090°54'1 1.9
2018-Apr-21 06:00N 32°20' W 090°54'1 1.1
2018-Apr-21 05:30N 32°21' W 090°54'1 2.0
2018-Apr-21 05:01N 32°20' W 090°54'0 0.0
2018-Apr-21 03:37N 32°20' W 090°54'1 4.5
2018-Apr-21 03:30N 32°20' W 090°54'1 1.1
2018-Apr-21 03:01N 32°20' W 090°54'3 5.0
2018-Apr-21 02:30N 32°18' W 090°55'3 4.9
2018-Apr-21 02:00N 32°20' W 090°54'0 0.1
2018-Apr-21 01:31N 32°20' W 090°54'1 2.6
2018-Apr-21 01:01N 32°21' W 090°55'1 2.6
2018-Apr-21 00:31N 32°20' W 090°54'0 0.0
2018-Apr-20 19:48N 32°20' W 090°54'1 2.1
2018-Apr-20 19:30N 32°19' W 090°54'0 0.5
2018-Apr-20 19:00N 32°19' W 090°54'0 0.2
2018-Apr-20 16:42N 32°20' W 090°54'0 2.5
2018-Apr-20 16:30N 32°20' W 090°54'1 1.5
2018-Apr-20 16:00N 32°20' W 090°55'1 2.6
2018-Apr-20 15:30N 32°19' W 090°55'1 1.1
2018-Apr-20 15:00N 32°19' W 090°54'1 1.4
2018-Apr-20 14:30N 32°19' W 090°55'4 8.0
2018-Apr-20 14:00N 32°21' W 090°58'4 7.8
2018-Apr-20 13:30N 32°19' W 090°55'2 3.3
2018-Apr-20 13:00N 32°20' W 090°55'1 2.1
2018-Apr-20 12:30N 32°20' W 090°54'1 2.6
2018-Apr-20 12:01N 32°19' W 090°55'2 3.5
2018-Apr-20 11:30N 32°20' W 090°54'1 0.1
2018-Apr-19 19:20N 32°20' W 090°54'0 0.1
2018-Apr-19 19:00N 32°20' W 090°54'1 1.5
2018-Apr-19 18:30N 32°20' W 090°55'4 7.4
2018-Apr-19 18:01N 32°21' W 090°59'4 8.9
2018-Apr-19 17:30N 32°20' W 090°54'0 0.0
2018-Apr-19 16:17N 32°20' W 090°54'311.8
2018-Apr-19 16:00N 32°21' W 090°57'3 3.2
2018-Apr-19 14:59N 32°20' W 090°54'1 1.8
2018-Apr-19 14:30N 32°19' W 090°55'0 0.5
2018-Apr-19 14:01N 32°19' W 090°55'1 2.1
2018-Apr-19 13:30N 32°20' W 090°54'1 2.2
2018-Apr-19 13:00N 32°20' W 090°55'2 4.7
2018-Apr-19 12:31N 32°18' W 090°56'1 2.3
2018-Apr-19 12:00N 32°19' W 090°55'2 3.4
2018-Apr-19 11:30N 32°20' W 090°55'2 0.1
2018-Apr-18 17:18N 32°20' W 090°54'1 3.8
2018-Apr-18 17:01N 32°19' W 090°55'0 0.7
2018-Apr-18 16:30N 32°19' W 090°54'3 6.0
2018-Apr-18 16:00N 32°21' W 090°57'3 0.2
2018-Apr-17 19:44N 32°20' W 090°54'1 3.9
2018-Apr-17 19:29N 32°19' W 090°54'1 2.1
2018-Apr-17 19:01N 32°20' W 090°54'2 4.1
2018-Apr-17 18:31N 32°21' W 090°56'2 4.1
2018-Apr-17 18:00N 32°19' W 090°54'3 5.1
2018-Apr-17 17:31N 32°21' W 090°56'3 5.1
2018-Apr-17 17:00N 32°19' W 090°55'3 6.6
2018-Apr-17 16:31N 32°21' W 090°58'4 1.1
2018-Apr-17 13:20N 32°20' W 090°54'1 2.9
2018-Apr-17 13:00N 32°19' W 090°54'2 3.5
2018-Apr-17 12:31N 32°20' W 090°55'1 1.0
2018-Apr-17 12:00N 32°20' W 090°55'1 2.0
2018-Apr-17 11:30N 32°20' W 090°54'0 0.0
2018-Apr-16 22:07N 32°20' W 090°54'1 7.5
2018-Apr-16 22:01N 32°19' W 090°54'2 4.4
2018-Apr-16 21:31N 32°21' W 090°56'0 0.6
2018-Apr-16 21:00N 32°21' W 090°56'  

Dump ship's entire track history